Portada
METAR-TAF:

METAR-TAF

Aeropuertos :

University-Oxford_Airport

Oxford, Misisipi, Estados Unidos

latitud: 34-23-04N, longitud: 089-32-08W, altitud: 138 m

Observación

El informe se hizo hace 9 minutos, a las 18:15 UTC
Viento 5 kt con dirección variable
Temperatura 13°C
Humedad 62%
Presión 1017 hPa
Visibilidad: 14.5 km
Cielo despejado

METAR: KUOX 271815Z AUTO VRB05KT 9SM CLR 13/06 A3003 RMK AO2

Hora: 12:24 (18:24 UTC)


TAF: falta

Observaciones y pronósticos meteorológicos de más de 4000 aeropuertos (mensajes METAR y TAF).

Los puntos amarillos y rojos representan las estaciones disponibles.

Ponga el ratón en el punto deseado para ver el nombre de la estación.

Haga clic para ver las observaciones y los pronósticos meteorológicos.

Para cambiar el mapa : haga clic en los botones verdes con una cruz de color negro para hacer un zoom, en el botón verde con un guión para alejar o en las flechas verdes para mapas adyacentes.


METAR-TAF: